OMAD

Details ICAO OMAD (AZI)
Name BATEEN
Region United Arab Emirates
Timezone Asia/Dubai (UTC+4.0)
Plans Departing 59
Arriving 48
Stats Elevation 16 ft / 5 m (AMSL)
Location 24.428597° 54.458181°
Runways 1
Magnetic Variation 2.021° E
Sunrise 2018-05-23 01:37:11 UTC / 2018-05-23 05:37:11 Local
Sunset 2018-05-23 15:03:29 UTC / 2018-05-23 19:03:29 Local
Advertisement - Login to hide

Runways

ID Width Length Bearing (true) Bearing (mag) Surface Threshold Offset Overrun Length
13 151 ft / 46 m 10,509 ft / 3,203 m 127.84° 125.82° Asphalt 1,673 ft / 510 m 600 ft / 183 m
31 151 ft / 46 m 10,509 ft / 3,203 m 307.85° 305.83° Asphalt 2,644 ft / 806 m 869 ft / 265 m

Map

Weather


0- 5 10 15 20 25 30 35+ Temperature / ° C

Clouds and Precipitation
Forecast for 2018-05-23 12:00 UTC. Updated 17 minutes ago

Ground ~20,000 ft ~40,000 ft Winds

METAR

OMAD 231100Z 35009KT CAVOK 40/08 Q1006 NOSIG

TAF

TAF OMAD 230500Z 2306/2412 21007KT 8000 NSC BECMG 2307/2309 33012KT BECMG 2319/2321 07006KT BECMG 2407/2409 33012KT

Frequencies

Ground 121.90 MHz GND
Approach 124.40 MHz ABU DHABI APP
Tower 119.90 MHz TWR
Approach 128.10 MHz ABU DHABI APP
Warning: Do not use this data for real-world aviation or navigation. No guarantee of current accuracy is given.